sensor_id;sensor_type;location;lat;lon;timestamp;P1;durP1;ratioP1;P2;durP2;ratioP2
50651;SDS011;61429;52.086;5.240;2022-12-08T00:00:32;5.8;;;3.4;;
50651;SDS011;61429;52.086;5.240;2022-12-08T00:02:09;4.2;;;3.1;;
50651;SDS011;61429;52.086;5.240;2022-12-08T00:03:45;4.2;;;3.4;;
50651;SDS011;61429;52.086;5.240;2022-12-08T00:09:33;4.3;;;3.4;;
50651;SDS011;61429;52.086;5.240;2022-12-08T00:11:12;3.4;;;3.0;;
50651;SDS011;61429;52.086;5.240;2022-12-08T07:26:16;3.2;;;1.4;;
50651;SDS011;61429;52.086;5.240;2022-12-08T07:27:53;3.4;;;1.3;;
50651;SDS011;61429;52.086;5.240;2022-12-08T07:29:30;2.4;;;1.11;;
50651;SDS011;61429;52.086;5.240;2022-12-08T07:32:51;1.5;;;1.11;;
50651;SDS011;61429;52.086;5.240;2022-12-08T07:34:27;2.31;;;1.3;;
50651;SDS011;61429;52.086;5.240;2022-12-08T07:36:04;2.1;;;1.2;;
50651;SDS011;61429;52.086;5.240;2022-12-08T07:37:40;2.31;;;1.6;;
50651;SDS011;61429;52.086;5.240;2022-12-08T07:40:54;2.5;;;1.4;;
50651;SDS011;61429;52.086;5.240;2022-12-08T07:42:29;1.5;;;1.4;;
50651;SDS011;61429;52.086;5.240;2022-12-08T07:44:07;1.6;;;1.11;;
50651;SDS011;61429;52.086;5.240;2022-12-08T07:47:21;1.9;;;1.2;;
50651;SDS011;61429;52.086;5.240;2022-12-08T07:48:57;1.8;;;1.4;;
50651;SDS011;61429;52.086;5.240;2022-12-08T07:50:34;1.7;;;1.0;;
50651;SDS011;61429;52.086;5.240;2022-12-08T07:52:10;1.2;;;1.0;;
50651;SDS011;61429;52.086;5.240;2022-12-08T07:55:24;1.5;;;1.11;;
50651;SDS011;61429;52.086;5.240;2022-12-08T07:58:39;2.7;;;1.8;;
50651;SDS011;61429;52.086;5.240;2022-12-08T08:01:55;1.7;;;1.3;;
50651;SDS011;61429;52.086;5.240;2022-12-08T08:03:31;2.5;;;1.4;;
50651;SDS011;61429;52.086;5.240;2022-12-08T08:05:09;3.8;;;1.2;;
50651;SDS011;61429;52.086;5.240;2022-12-08T08:06:46;1.7;;;1.2;;
50651;SDS011;61429;52.086;5.240;2022-12-08T08:09:59;1.11;;;1.0;;
50651;SDS011;61429;52.086;5.240;2022-12-08T08:11:35;1.9;;;1.11;;
50651;SDS011;61429;52.086;5.240;2022-12-08T08:13:12;1.9;;;1.11;;
50651;SDS011;61429;52.086;5.240;2022-12-08T08:16:25;1.9;;;1.0;;
50651;SDS011;61429;52.086;5.240;2022-12-08T08:18:02;3.0;;;2.5;;
50651;SDS011;61429;52.086;5.240;2022-12-08T08:19:39;2.31;;;1.5;;
50651;SDS011;61429;52.086;5.240;2022-12-08T08:22:53;1.6;;;1.3;;
50651;SDS011;61429;52.086;5.240;2022-12-08T08:24:29;1.2;;;1.11;;
50651;SDS011;61429;52.086;5.240;2022-12-08T08:26:05;2.4;;;1.4;;
50651;SDS011;61429;52.086;5.240;2022-12-08T08:27:42;2.6;;;1.4;;
50651;SDS011;61429;52.086;5.240;2022-12-08T08:30:56;2.1;;;1.6;;
50651;SDS011;61429;52.086;5.240;2022-12-08T08:32:34;1.8;;;1.6;;
50651;SDS011;61429;52.086;5.240;2022-12-08T08:34:11;2.21;;;1.5;;
50651;SDS011;61429;52.086;5.240;2022-12-08T08:37:25;2.0;;;1.2;;
50651;SDS011;61429;52.086;5.240;2022-12-08T08:39:02;2.21;;;1.6;;
50651;SDS011;61429;52.086;5.240;2022-12-08T08:40:39;1.7;;;1.11;;
50651;SDS011;61429;52.086;5.240;2022-12-08T08:43:53;2.31;;;1.5;;
50651;SDS011;61429;52.086;5.240;2022-12-08T08:45:29;1.3;;;1.11;;
50651;SDS011;61429;52.086;5.240;2022-12-08T08:47:06;2.5;;;1.2;;
50651;SDS011;61429;52.086;5.240;2022-12-08T08:48:43;1.4;;;1.2;;
50651;SDS011;61429;52.086;5.240;2022-12-08T08:51:56;1.2;;;1.11;;
50651;SDS011;61429;52.086;5.240;2022-12-08T08:53:32;1.8;;;1.3;;
50651;SDS011;61429;52.086;5.240;2022-12-08T08:55:08;1.7;;;1.2;;
50651;SDS011;61429;52.086;5.240;2022-12-08T08:58:23;1.8;;;1.3;;
50651;SDS011;61429;52.086;5.240;2022-12-08T08:59:59;1.8;;;1.2;;
50651;SDS011;61429;52.086;5.240;2022-12-08T09:01:35;1.5;;;1.11;;
50651;SDS011;61429;52.086;5.240;2022-12-08T09:04:47;2.1;;;1.5;;
50651;SDS011;61429;52.086;5.240;2022-12-08T09:06:24;1.4;;;1.3;;
50651;SDS011;61429;52.086;5.240;2022-12-08T09:08:01;1.6;;;1.5;;
50651;SDS011;61429;52.086;5.240;2022-12-08T09:09:37;2.6;;;1.4;;
50651;SDS011;61429;52.086;5.240;2022-12-08T09:12:51;2.0;;;1.5;;
50651;SDS011;61429;52.086;5.240;2022-12-08T09:14:27;1.7;;;1.6;;
50651;SDS011;61429;52.086;5.240;2022-12-08T09:16:04;3.1;;;1.9;;
50651;SDS011;61429;52.086;5.240;2022-12-08T09:19:19;3.3;;;1.8;;
50651;SDS011;61429;52.086;5.240;2022-12-08T09:20:55;2.4;;;2.0;;
50651;SDS011;61429;52.086;5.240;2022-12-08T09:22:31;2.21;;;1.9;;
50651;SDS011;61429;52.086;5.240;2022-12-08T09:25:45;1.7;;;1.6;;
50651;SDS011;61429;52.086;5.240;2022-12-08T09:27:22;2.21;;;1.8;;
50651;SDS011;61429;52.086;5.240;2022-12-08T09:28:58;2.1;;;1.8;;
50651;SDS011;61429;52.086;5.240;2022-12-08T09:30:34;1.7;;;1.6;;
50651;SDS011;61429;52.086;5.240;2022-12-08T09:33:46;2.4;;;2.21;;
50651;SDS011;61429;52.086;5.240;2022-12-08T09:35:24;2.9;;;2.21;;
50651;SDS011;61429;52.086;5.240;2022-12-08T09:37:01;4.0;;;2.9;;
50651;SDS011;61429;52.086;5.240;2022-12-08T09:40:18;3.0;;;1.8;;
50651;SDS011;61429;52.086;5.240;2022-12-08T09:41:58;1.7;;;1.6;;
50651;SDS011;61429;52.086;5.240;2022-12-08T09:43:41;1.8;;;1.6;;
50651;SDS011;61429;52.086;5.240;2022-12-08T09:45:32;1.6;;;1.5;;
50651;SDS011;61429;52.086;5.240;2022-12-08T09:47:12;2.31;;;1.6;;
50651;SDS011;61429;52.086;5.240;2022-12-08T09:50:36;2.1;;;1.6;;
50651;SDS011;61429;52.086;5.240;2022-12-08T09:52:18;2.1;;;1.9;;
50651;SDS011;61429;52.086;5.240;2022-12-08T09:53:59;2.5;;;1.7;;
50651;SDS011;61429;52.086;5.240;2022-12-08T09:55:41;1.6;;;1.5;;
50651;SDS011;61429;52.086;5.240;2022-12-08T09:59:00;2.1;;;1.6;;
50651;SDS011;61429;52.086;5.240;2022-12-08T10:00:41;2.6;;;1.8;;
50651;SDS011;61429;52.086;5.240;2022-12-08T10:02:20;2.31;;;1.5;;
50651;SDS011;61429;52.086;5.240;2022-12-08T10:03:59;2.1;;;1.4;;
50651;SDS011;61429;52.086;5.240;2022-12-08T10:07:20;2.4;;;1.5;;
50651;SDS011;61429;52.086;5.240;2022-12-08T10:09:07;1.4;;;1.3;;
50651;SDS011;61429;52.086;5.240;2022-12-08T10:11:02;3.0;;;1.3;;
50651;SDS011;61429;52.086;5.240;2022-12-08T10:12:51;2.0;;;1.3;;
50651;SDS011;61429;52.086;5.240;2022-12-08T10:14:34;1.3;;;1.2;;
50651;SDS011;61429;52.086;5.240;2022-12-08T10:18:08;2.4;;;1.11;;
50651;SDS011;61429;52.086;5.240;2022-12-08T10:19:54;1.0;;;0.8;;
50651;SDS011;61429;52.086;5.240;2022-12-08T10:21:40;2.21;;;0.9;;
50651;SDS011;61429;52.086;5.240;2022-12-08T10:23:26;1.0;;;0.7;;
50651;SDS011;61429;52.086;5.240;2022-12-08T10:25:09;1.5;;;0.9;;
50651;SDS011;61429;52.086;5.240;2022-12-08T10:28:32;0.7;;;0.7;;
50651;SDS011;61429;52.086;5.240;2022-12-08T10:30:17;1.2;;;0.8;;
50651;SDS011;61429;52.086;5.240;2022-12-08T10:31:55;1.0;;;0.8;;
50651;SDS011;61429;52.086;5.240;2022-12-08T10:33:34;0.8;;;0.8;;
50651;SDS011;61429;52.086;5.240;2022-12-08T10:36:51;1.0;;;0.7;;
50651;SDS011;61429;52.086;5.240;2022-12-08T10:38:30;1.3;;;0.9;;
50651;SDS011;61429;52.086;5.240;2022-12-08T10:40:11;0.9;;;0.6;;
50651;SDS011;61429;52.086;5.240;2022-12-08T10:41:53;1.5;;;0.6;;
50651;SDS011;61429;52.086;5.240;2022-12-08T10:45:21;1.9;;;0.6;;
50651;SDS011;61429;52.086;5.240;2022-12-08T10:47:03;1.9;;;0.6;;
50651;SDS011;61429;52.086;5.240;2022-12-08T10:48:48;1.11;;;0.9;;
50651;SDS011;61429;52.086;5.240;2022-12-08T10:50:28;2.0;;;0.7;;
50651;SDS011;61429;52.086;5.240;2022-12-08T10:52:08;1.6;;;0.8;;
50651;SDS011;61429;52.086;5.240;2022-12-08T10:55:38;1.2;;;0.8;;
50651;SDS011;61429;52.086;5.240;2022-12-08T10:57:18;1.0;;;0.9;;
50651;SDS011;61429;52.086;5.240;2022-12-08T10:59:04;1.3;;;1.2;;
50651;SDS011;61429;52.086;5.240;2022-12-08T11:00:49;1.5;;;1.2;;
50651;SDS011;61429;52.086;5.240;2022-12-08T11:04:04;1.6;;;0.9;;
50651;SDS011;61429;52.086;5.240;2022-12-08T11:05:47;0.8;;;0.8;;
50651;SDS011;61429;52.086;5.240;2022-12-08T11:07:24;2.9;;;1.2;;
50651;SDS011;61429;52.086;5.240;2022-12-08T11:09:03;2.0;;;1.5;;
50651;SDS011;61429;52.086;5.240;2022-12-08T11:12:21;2.1;;;1.3;;
50651;SDS011;61429;52.086;5.240;2022-12-08T11:13:58;1.5;;;1.3;;
50651;SDS011;61429;52.086;5.240;2022-12-08T11:15:42;1.9;;;1.5;;
50651;SDS011;61429;52.086;5.240;2022-12-08T11:17:22;1.7;;;1.5;;
50651;SDS011;61429;52.086;5.240;2022-12-08T11:20:40;2.7;;;1.8;;
50651;SDS011;61429;52.086;5.240;2022-12-08T11:22:21;2.21;;;1.7;;
50651;SDS011;61429;52.086;5.240;2022-12-08T11:24:09;2.8;;;2.5;;
50651;SDS011;61429;52.086;5.240;2022-12-08T11:25:57;3.4;;;2.21;;
50651;SDS011;61429;52.086;5.240;2022-12-08T11:27:40;2.5;;;2.0;;
50651;SDS011;61429;52.086;5.240;2022-12-08T11:30:57;2.4;;;2.1;;
50651;SDS011;61429;52.086;5.240;2022-12-08T11:32:41;2.7;;;1.7;;
50651;SDS011;61429;52.086;5.240;2022-12-08T11:34:22;3.4;;;1.8;;
50651;SDS011;61429;52.086;5.240;2022-12-08T11:36:10;2.7;;;2.0;;
50651;SDS011;61429;52.086;5.240;2022-12-08T11:39:28;2.4;;;1.9;;
50651;SDS011;61429;52.086;5.240;2022-12-08T11:41:10;2.9;;;1.9;;
50651;SDS011;61429;52.086;5.240;2022-12-08T11:42:52;2.31;;;1.7;;
50651;SDS011;61429;52.086;5.240;2022-12-08T11:44:37;2.6;;;2.1;;
50651;SDS011;61429;52.086;5.240;2022-12-08T11:48:04;2.8;;;2.0;;
50651;SDS011;61429;52.086;5.240;2022-12-08T11:49:49;3.6;;;2.4;;
50651;SDS011;61429;52.086;5.240;2022-12-08T11:51:36;3.8;;;2.8;;
50651;SDS011;61429;52.086;5.240;2022-12-08T11:53:17;2.6;;;2.0;;
50651;SDS011;61429;52.086;5.240;2022-12-08T11:55:07;4.3;;;2.8;;
50651;SDS011;61429;52.086;5.240;2022-12-08T11:57:07;2.1;;;1.9;;
50651;SDS011;61429;52.086;5.240;2022-12-08T12:00:30;2.9;;;1.8;;
50651;SDS011;61429;52.086;5.240;2022-12-08T12:02:10;5.4;;;4.5;;
50651;SDS011;61429;52.086;5.240;2022-12-08T12:03:54;3.2;;;2.6;;
50651;SDS011;61429;52.086;5.240;2022-12-08T12:05:44;2.7;;;2.1;;
50651;SDS011;61429;52.086;5.240;2022-12-08T12:07:39;4.0;;;2.0;;
50651;SDS011;61429;52.086;5.240;2022-12-08T12:09:34;3.0;;;2.1;;
50651;SDS011;61429;52.086;5.240;2022-12-08T12:14:07;2.31;;;1.9;;
50651;SDS011;61429;52.086;5.240;2022-12-08T12:16:15;3.3;;;2.4;;
50651;SDS011;61429;52.086;5.240;2022-12-08T12:18:09;2.6;;;2.4;;
50651;SDS011;61429;52.086;5.240;2022-12-08T12:19:53;2.8;;;2.31;;
50651;SDS011;61429;52.086;5.240;2022-12-08T12:23:18;3.5;;;2.0;;
50651;SDS011;61429;52.086;5.240;2022-12-08T12:24:58;3.9;;;2.5;;
50651;SDS011;61429;52.086;5.240;2022-12-08T12:26:37;2.8;;;2.1;;
50651;SDS011;61429;52.086;5.240;2022-12-08T12:28:25;2.1;;;1.9;;
50651;SDS011;61429;52.086;5.240;2022-12-08T12:31:54;2.1;;;1.9;;
50651;SDS011;61429;52.086;5.240;2022-12-08T12:33:33;3.0;;;1.8;;
50651;SDS011;61429;52.086;5.240;2022-12-08T12:35:13;2.7;;;2.0;;
50651;SDS011;61429;52.086;5.240;2022-12-08T12:36:55;2.31;;;2.0;;
50651;SDS011;61429;52.086;5.240;2022-12-08T12:40:48;3.7;;;3.0;;
50651;SDS011;61429;52.086;5.240;2022-12-08T12:44:34;2.7;;;2.0;;
50651;SDS011;61429;52.086;5.240;2022-12-08T12:47:43;2.7;;;2.31;;
50651;SDS011;61429;52.086;5.240;2022-12-08T12:50:40;2.9;;;2.4;;
50651;SDS011;61429;52.086;5.240;2022-12-08T12:52:54;3.6;;;2.4;;
50651;SDS011;61429;52.086;5.240;2022-12-08T12:54:30;3.5;;;2.4;;
50651;SDS011;61429;52.086;5.240;2022-12-08T12:56:09;3.6;;;2.1;;
50651;SDS011;61429;52.086;5.240;2022-12-08T12:57:49;2.0;;;1.8;;
50651;SDS011;61429;52.086;5.240;2022-12-08T13:01:53;2.1;;;1.9;;
50651;SDS011;61429;52.086;5.240;2022-12-08T13:03:30;2.31;;;2.1;;
50651;SDS011;61429;52.086;5.240;2022-12-08T13:05:09;2.5;;;2.31;;
50651;SDS011;61429;52.086;5.240;2022-12-08T13:06:52;2.21;;;2.0;;
50651;SDS011;61429;52.086;5.240;2022-12-08T13:08:28;2.4;;;2.21;;
50651;SDS011;61429;52.086;5.240;2022-12-08T13:10:10;2.21;;;2.0;;
50651;SDS011;61429;52.086;5.240;2022-12-08T13:13:33;2.6;;;2.21;;
50651;SDS011;61429;52.086;5.240;2022-12-08T13:15:14;3.4;;;2.8;;
50651;SDS011;61429;52.086;5.240;2022-12-08T13:16:55;2.6;;;2.21;;
50651;SDS011;61429;52.086;5.240;2022-12-08T13:18:36;3.5;;;2.4;;
50651;SDS011;61429;52.086;5.240;2022-12-08T13:21:57;2.8;;;2.6;;
50651;SDS011;61429;52.086;5.240;2022-12-08T13:23:44;4.5;;;2.9;;
50651;SDS011;61429;52.086;5.240;2022-12-08T13:26:27;3.4;;;2.7;;
50651;SDS011;61429;52.086;5.240;2022-12-08T13:28:11;2.4;;;2.21;;
50651;SDS011;61429;52.086;5.240;2022-12-08T13:30:32;2.4;;;2.21;;
50651;SDS011;61429;52.086;5.240;2022-12-08T13:32:51;2.8;;;2.6;;
50651;SDS011;61429;52.086;5.240;2022-12-08T13:35:01;3.8;;;3.4;;
50651;SDS011;61429;52.086;5.240;2022-12-08T13:36:40;3.1;;;2.6;;
50651;SDS011;61429;52.086;5.240;2022-12-08T13:38:25;3.6;;;2.9;;
50651;SDS011;61429;52.086;5.240;2022-12-08T13:40:07;2.9;;;2.4;;
50651;SDS011;61429;52.086;5.240;2022-12-08T13:41:55;3.7;;;2.7;;
50651;SDS011;61429;52.086;5.240;2022-12-08T13:43:39;2.6;;;2.31;;
50651;SDS011;61429;52.086;5.240;2022-12-08T13:47:00;3.8;;;3.2;;
50651;SDS011;61429;52.086;5.240;2022-12-08T13:48:44;4.1;;;3.3;;
50651;SDS011;61429;52.086;5.240;2022-12-08T13:50:26;2.7;;;2.31;;
50651;SDS011;61429;52.086;5.240;2022-12-08T13:52:12;2.4;;;2.1;;
50651;SDS011;61429;52.086;5.240;2022-12-08T13:55:37;3.2;;;2.31;;
50651;SDS011;61429;52.086;5.240;2022-12-08T13:57:21;2.6;;;2.0;;
50651;SDS011;61429;52.086;5.240;2022-12-08T13:59:06;3.9;;;2.31;;
50651;SDS011;61429;52.086;5.240;2022-12-08T14:01:03;3.2;;;2.4;;
50651;SDS011;61429;52.086;5.240;2022-12-08T14:02:44;3.3;;;2.4;;
50651;SDS011;61429;52.086;5.240;2022-12-08T14:06:01;3.5;;;2.31;;
50651;SDS011;61429;52.086;5.240;2022-12-08T14:07:39;3.7;;;2.31;;
50651;SDS011;61429;52.086;5.240;2022-12-08T14:09:18;3.1;;;2.21;;
50651;SDS011;61429;52.086;5.240;2022-12-08T14:10:59;2.4;;;2.0;;
50651;SDS011;61429;52.086;5.240;2022-12-08T14:14:22;2.8;;;2.5;;
50651;SDS011;61429;52.086;5.240;2022-12-08T14:16:02;3.7;;;2.8;;
50651;SDS011;61429;52.086;5.240;2022-12-08T14:17:39;3.8;;;2.7;;
50651;SDS011;61429;52.086;5.240;2022-12-08T14:19:17;3.8;;;2.7;;
50651;SDS011;61429;52.086;5.240;2022-12-08T14:22:39;3.7;;;3.0;;
50651;SDS011;61429;52.086;5.240;2022-12-08T14:24:16;2.8;;;2.6;;
50651;SDS011;61429;52.086;5.240;2022-12-08T14:25:52;4.41;;;4.0;;
50651;SDS011;61429;52.086;5.240;2022-12-08T14:27:31;4.2;;;3.8;;
50651;SDS011;61429;52.086;5.240;2022-12-08T14:31:03;3.5;;;3.0;;
50651;SDS011;61429;52.086;5.240;2022-12-08T14:32:42;3.2;;;2.9;;
50651;SDS011;61429;52.086;5.240;2022-12-08T14:34:21;3.2;;;2.9;;
50651;SDS011;61429;52.086;5.240;2022-12-08T14:35:58;4.0;;;3.4;;
50651;SDS011;61429;52.086;5.240;2022-12-08T14:39:13;4.2;;;3.6;;
50651;SDS011;61429;52.086;5.240;2022-12-08T14:40:58;3.7;;;3.2;;
50651;SDS011;61429;52.086;5.240;2022-12-08T14:42:41;3.2;;;2.9;;
50651;SDS011;61429;52.086;5.240;2022-12-08T14:44:20;3.6;;;3.1;;
50651;SDS011;61429;52.086;5.240;2022-12-08T14:47:40;3.4;;;3.1;;
50651;SDS011;61429;52.086;5.240;2022-12-08T14:49:30;4.7;;;3.7;;
50651;SDS011;61429;52.086;5.240;2022-12-08T14:51:11;4.5;;;3.6;;
50651;SDS011;61429;52.086;5.240;2022-12-08T14:52:56;5.0;;;3.5;;
50651;SDS011;61429;52.086;5.240;2022-12-08T14:56:13;4.3;;;3.5;;
50651;SDS011;61429;52.086;5.240;2022-12-08T14:57:55;3.7;;;3.4;;
50651;SDS011;61429;52.086;5.240;2022-12-08T14:59:32;3.7;;;3.2;;
50651;SDS011;61429;52.086;5.240;2022-12-08T15:01:12;3.8;;;3.4;;
50651;SDS011;61429;52.086;5.240;2022-12-08T15:04:28;3.7;;;3.3;;
50651;SDS011;61429;52.086;5.240;2022-12-08T15:06:05;7.5;;;5.0;;
50651;SDS011;61429;52.086;5.240;2022-12-08T15:07:44;5.11;;;4.3;;
50651;SDS011;61429;52.086;5.240;2022-12-08T15:09:28;4.1;;;3.4;;
50651;SDS011;61429;52.086;5.240;2022-12-08T15:13:18;3.8;;;2.8;;
50651;SDS011;61429;52.086;5.240;2022-12-08T15:14:58;4.7;;;3.2;;
50651;SDS011;61429;52.086;5.240;2022-12-08T15:16:48;3.2;;;2.7;;
50651;SDS011;61429;52.086;5.240;2022-12-08T15:18:28;2.7;;;2.5;;
50651;SDS011;61429;52.086;5.240;2022-12-08T15:20:24;2.31;;;2.1;;
50651;SDS011;61429;52.086;5.240;2022-12-08T15:22:06;3.7;;;2.4;;
50651;SDS011;61429;52.086;5.240;2022-12-08T15:25:31;3.3;;;2.8;;
50651;SDS011;61429;52.086;5.240;2022-12-08T15:27:08;4.41;;;2.9;;
50651;SDS011;61429;52.086;5.240;2022-12-08T15:28:53;5.11;;;2.5;;
50651;SDS011;61429;52.086;5.240;2022-12-08T15:30:30;4.41;;;3.1;;
50651;SDS011;61429;52.086;5.240;2022-12-08T15:33:46;3.2;;;2.0;;
50651;SDS011;61429;52.086;5.240;2022-12-08T15:35:22;3.7;;;2.21;;
50651;SDS011;61429;52.086;5.240;2022-12-08T15:36:58;3.9;;;2.31;;
50651;SDS011;61429;52.086;5.240;2022-12-08T15:40:14;3.9;;;2.7;;
50651;SDS011;61429;52.086;5.240;2022-12-08T15:41:52;3.4;;;2.7;;
50651;SDS011;61429;52.086;5.240;2022-12-08T15:43:29;3.7;;;2.5;;
50651;SDS011;61429;52.086;5.240;2022-12-08T15:45:10;5.8;;;3.2;;
50651;SDS011;61429;52.086;5.240;2022-12-08T15:48:26;3.7;;;2.6;;
50651;SDS011;61429;52.086;5.240;2022-12-08T15:50:05;4.0;;;3.2;;
50651;SDS011;61429;52.086;5.240;2022-12-08T15:51:48;3.8;;;3.1;;
50651;SDS011;61429;52.086;5.240;2022-12-08T15:53:26;3.7;;;3.3;;
50651;SDS011;61429;52.086;5.240;2022-12-08T15:56:40;5.0;;;3.9;;
50651;SDS011;61429;52.086;5.240;2022-12-08T15:58:20;9.31;;;6.6;;
50651;SDS011;61429;52.086;5.240;2022-12-08T15:59:57;7.4;;;5.6;;
50651;SDS011;61429;52.086;5.240;2022-12-08T16:03:17;6.0;;;5.0;;
50651;SDS011;61429;52.086;5.240;2022-12-08T16:04:56;4.7;;;4.1;;
50651;SDS011;61429;52.086;5.240;2022-12-08T16:06:33;6.5;;;4.2;;
50651;SDS011;61429;52.086;5.240;2022-12-08T16:08:10;4.7;;;4.2;;
50651;SDS011;61429;52.086;5.240;2022-12-08T16:15:34;5.3;;;3.9;;
50651;SDS011;61429;52.086;5.240;2022-12-08T16:17:12;3.7;;;3.4;;
50651;SDS011;61429;52.086;5.240;2022-12-08T16:18:50;3.7;;;3.1;;
50651;SDS011;61429;52.086;5.240;2022-12-08T16:20:27;4.0;;;3.1;;
50651;SDS011;61429;52.086;5.240;2022-12-08T16:23:40;4.3;;;3.3;;
50651;SDS011;61429;52.086;5.240;2022-12-08T16:25:17;3.6;;;3.3;;
50651;SDS011;61429;52.086;5.240;2022-12-08T16:26:55;3.7;;;3.4;;
50651;SDS011;61429;52.086;5.240;2022-12-08T16:30:11;5.11;;;4.5;;
50651;SDS011;61429;52.086;5.240;2022-12-08T16:31:51;4.0;;;3.6;;
50651;SDS011;61429;52.086;5.240;2022-12-08T16:33:27;5.3;;;4.3;;
50651;SDS011;61429;52.086;5.240;2022-12-08T16:36:40;4.41;;;4.0;;
50651;SDS011;61429;52.086;5.240;2022-12-08T16:38:16;4.2;;;3.6;;
50651;SDS011;61429;52.086;5.240;2022-12-08T16:39:54;4.3;;;3.9;;
50651;SDS011;61429;52.086;5.240;2022-12-08T16:42:50;5.11;;;4.0;;
50651;SDS011;61429;52.086;5.240;2022-12-08T16:44:26;7.7;;;5.3;;
50651;SDS011;61429;52.086;5.240;2022-12-08T16:46:02;6.3;;;4.8;;
50651;SDS011;61429;52.086;5.240;2022-12-08T16:47:40;6.0;;;5.4;;
50651;SDS011;61429;52.086;5.240;2022-12-08T16:50:54;5.5;;;4.3;;
50651;SDS011;61429;52.086;5.240;2022-12-08T16:52:31;3.7;;;3.4;;
50651;SDS011;61429;52.086;5.240;2022-12-08T16:54:07;4.1;;;3.5;;
50651;SDS011;61429;52.086;5.240;2022-12-08T16:57:22;3.7;;;3.0;;
50651;SDS011;61429;52.086;5.240;2022-12-08T16:58:58;4.5;;;3.0;;
50651;SDS011;61429;52.086;5.240;2022-12-08T17:00:35;4.1;;;3.2;;
50651;SDS011;61429;52.086;5.240;2022-12-08T17:03:47;3.4;;;3.1;;
50651;SDS011;61429;52.086;5.240;2022-12-08T17:05:24;6.0;;;4.7;;
50651;SDS011;61429;52.086;5.240;2022-12-08T17:07:01;4.5;;;3.5;;
50651;SDS011;61429;52.086;5.240;2022-12-08T17:08:37;4.91;;;3.8;;
50651;SDS011;61429;52.086;5.240;2022-12-08T17:11:55;6.2;;;5.5;;
50651;SDS011;61429;52.086;5.240;2022-12-08T17:13:32;4.91;;;4.2;;
50651;SDS011;61429;52.086;5.240;2022-12-08T17:15:10;4.8;;;3.6;;
50651;SDS011;61429;52.086;5.240;2022-12-08T17:18:26;4.61;;;3.6;;
50651;SDS011;61429;52.086;5.240;2022-12-08T17:20:04;3.9;;;3.4;;
50651;SDS011;61429;52.086;5.240;2022-12-08T17:21:43;5.7;;;4.1;;
50651;SDS011;61429;52.086;5.240;2022-12-08T17:23:19;4.91;;;4.2;;
50651;SDS011;61429;52.086;5.240;2022-12-08T17:26:34;5.0;;;4.5;;
50651;SDS011;61429;52.086;5.240;2022-12-08T17:28:10;5.5;;;4.7;;
50651;SDS011;61429;52.086;5.240;2022-12-08T17:29:46;7.4;;;5.11;;
50651;SDS011;61429;52.086;5.240;2022-12-08T17:32:59;9.31;;;8.4;;
50651;SDS011;61429;52.086;5.240;2022-12-08T17:34:35;6.8;;;6.1;;
50651;SDS011;61429;52.086;5.240;2022-12-08T17:36:12;5.7;;;5.11;;
50651;SDS011;61429;52.086;5.240;2022-12-08T17:37:51;5.5;;;5.0;;
50651;SDS011;61429;52.086;5.240;2022-12-08T17:41:04;6.7;;;5.9;;
50651;SDS011;61429;52.086;5.240;2022-12-08T17:42:43;6.4;;;5.5;;
50651;SDS011;61429;52.086;5.240;2022-12-08T17:44:19;6.1;;;5.5;;
50651;SDS011;61429;52.086;5.240;2022-12-08T17:47:31;5.8;;;5.3;;
50651;SDS011;61429;52.086;5.240;2022-12-08T17:49:08;6.0;;;5.4;;
50651;SDS011;61429;52.086;5.240;2022-12-08T17:50:45;6.2;;;5.3;;
50651;SDS011;61429;52.086;5.240;2022-12-08T17:53:57;6.6;;;5.9;;
50651;SDS011;61429;52.086;5.240;2022-12-08T17:55:33;8.0;;;6.6;;
50651;SDS011;61429;52.086;5.240;2022-12-08T17:57:10;7.3;;;6.6;;
50651;SDS011;61429;52.086;5.240;2022-12-08T17:58:47;8.2;;;7.3;;
50651;SDS011;61429;52.086;5.240;2022-12-08T18:02:00;9.6;;;7.5;;
50651;SDS011;61429;52.086;5.240;2022-12-08T18:03:37;8.31;;;7.4;;
50651;SDS011;61429;52.086;5.240;2022-12-08T18:05:13;8.1;;;7.3;;
50651;SDS011;61429;52.086;5.240;2022-12-08T18:08:26;8.6;;;7.4;;
50651;SDS011;61429;52.086;5.240;2022-12-08T18:10:02;8.81;;;7.9;;
50651;SDS011;61429;52.086;5.240;2022-12-08T18:11:39;8.71;;;7.8;;
50651;SDS011;61429;52.086;5.240;2022-12-08T18:14:54;9.71;;;8.6;;
50651;SDS011;61429;52.086;5.240;2022-12-08T18:16:31;10.3;;;8.31;;
50651;SDS011;61429;52.086;5.240;2022-12-08T18:18:08;8.81;;;7.9;;
50651;SDS011;61429;52.086;5.240;2022-12-08T18:19:44;11.0;;;8.6;;
50651;SDS011;61429;52.086;5.240;2022-12-08T18:22:56;9.71;;;8.71;;
50651;SDS011;61429;52.086;5.240;2022-12-08T18:24:32;9.21;;;8.31;;
50651;SDS011;61429;52.086;5.240;2022-12-08T18:26:11;9.71;;;8.6;;
50651;SDS011;61429;52.086;5.240;2022-12-08T18:29:25;9.6;;;8.6;;
50651;SDS011;61429;52.086;5.240;2022-12-08T18:31:06;10.7;;;9.6;;
50651;SDS011;61429;52.086;5.240;2022-12-08T18:32:44;12.3;;;11.0;;
50651;SDS011;61429;52.086;5.240;2022-12-08T18:34:21;10.6;;;9.4;;
50651;SDS011;61429;52.086;5.240;2022-12-08T18:37:33;10.7;;;9.6;;
50651;SDS011;61429;52.086;5.240;2022-12-08T18:39:14;10.8;;;9.71;;
50651;SDS011;61429;52.086;5.240;2022-12-08T18:41:02;10.5;;;9.5;;
50651;SDS011;61429;52.086;5.240;2022-12-08T18:44:15;9.5;;;8.5;;
50651;SDS011;61429;52.086;5.240;2022-12-08T18:45:58;10.21;;;8.9;;
50651;SDS011;61429;52.086;5.240;2022-12-08T18:47:37;10.21;;;9.21;;
50651;SDS011;61429;52.086;5.240;2022-12-08T18:49:16;10.7;;;9.6;;
50651;SDS011;61429;52.086;5.240;2022-12-08T18:52:30;10.9;;;9.81;;
50651;SDS011;61429;52.086;5.240;2022-12-08T18:54:07;10.4;;;9.4;;
50651;SDS011;61429;52.086;5.240;2022-12-08T18:55:45;12.9;;;10.9;;
50651;SDS011;61429;52.086;5.240;2022-12-08T18:57:21;11.8;;;10.5;;
50651;SDS011;61429;52.086;5.240;2022-12-08T19:00:39;11.5;;;10.4;;
50651;SDS011;61429;52.086;5.240;2022-12-08T19:02:15;11.6;;;10.5;;
50651;SDS011;61429;52.086;5.240;2022-12-08T19:03:52;14.0;;;12.5;;
50651;SDS011;61429;52.086;5.240;2022-12-08T19:07:05;15.0;;;12.6;;
50651;SDS011;61429;52.086;5.240;2022-12-08T19:08:41;16.7;;;13.3;;
50651;SDS011;61429;52.086;5.240;2022-12-08T19:10:17;14.9;;;12.9;;
50651;SDS011;61429;52.086;5.240;2022-12-08T19:13:30;15.1;;;12.9;;
50651;SDS011;61429;52.086;5.240;2022-12-08T19:15:08;15.1;;;13.2;;
50651;SDS011;61429;52.086;5.240;2022-12-08T19:16:45;12.9;;;11.6;;
50651;SDS011;61429;52.086;5.240;2022-12-08T19:18:21;12.8;;;11.5;;
50651;SDS011;61429;52.086;5.240;2022-12-08T19:21:34;12.6;;;11.3;;
50651;SDS011;61429;52.086;5.240;2022-12-08T19:23:11;13.1;;;11.8;;
50651;SDS011;61429;52.086;5.240;2022-12-08T19:24:48;16.5;;;12.9;;
50651;SDS011;61429;52.086;5.240;2022-12-08T19:28:01;13.4;;;12.1;;
50651;SDS011;61429;52.086;5.240;2022-12-08T19:29:37;13.1;;;11.7;;
50651;SDS011;61429;52.086;5.240;2022-12-08T19:31:13;13.3;;;11.9;;
50651;SDS011;61429;52.086;5.240;2022-12-08T19:34:26;15.0;;;13.4;;
50651;SDS011;61429;52.086;5.240;2022-12-08T19:36:03;14.3;;;12.8;;
50651;SDS011;61429;52.086;5.240;2022-12-08T19:37:41;13.9;;;12.5;;
50651;SDS011;61429;52.086;5.240;2022-12-08T19:45:12;15.0;;;13.4;;
50651;SDS011;61429;52.086;5.240;2022-12-08T19:46:51;14.8;;;13.2;;
50651;SDS011;61429;52.086;5.240;2022-12-08T19:48:27;16.5;;;14.7;;
50651;SDS011;61429;52.086;5.240;2022-12-08T19:50:36;17.3;;;15.3;;
50651;SDS011;61429;52.086;5.240;2022-12-08T19:52:14;16.3;;;14.3;;
50651;SDS011;61429;52.086;5.240;2022-12-08T19:53:51;16.3;;;14.6;;
50651;SDS011;61429;52.086;5.240;2022-12-08T19:57:04;18.91;;;16.2;;
50651;SDS011;61429;52.086;5.240;2022-12-08T19:58:40;15.9;;;14.2;;
50651;SDS011;61429;52.086;5.240;2022-12-08T20:00:17;17.41;;;15.6;;
50651;SDS011;61429;52.086;5.240;2022-12-08T20:03:32;18.11;;;16.2;;
50651;SDS011;61429;52.086;5.240;2022-12-08T20:05:08;18.3;;;16.4;;
50651;SDS011;61429;52.086;5.240;2022-12-08T20:06:47;19.8;;;17.11;;
50651;SDS011;61429;52.086;5.240;2022-12-08T20:10:03;20.3;;;18.0;;
50651;SDS011;61429;52.086;5.240;2022-12-08T20:11:41;22.3;;;18.0;;
50651;SDS011;61429;52.086;5.240;2022-12-08T20:13:49;18.5;;;16.5;;
50651;SDS011;61429;52.086;5.240;2022-12-08T20:15:25;17.5;;;15.7;;
50651;SDS011;61429;52.086;5.240;2022-12-08T20:17:02;19.41;;;17.0;;
50651;SDS011;61429;52.086;5.240;2022-12-08T20:20:17;19.41;;;17.41;;
50651;SDS011;61429;52.086;5.240;2022-12-08T20:21:53;19.8;;;17.41;;
50651;SDS011;61429;52.086;5.240;2022-12-08T20:23:29;19.0;;;16.9;;